createdAt,value
2023-02-12T00:01:41.492Z,101423.03
2023-02-12T00:04:11.598Z,101420.50
2023-02-12T00:06:40.774Z,101417.94
2023-02-12T00:09:09.525Z,101423.84
2023-02-12T00:11:38.198Z,101416.22
2023-02-12T00:14:06.930Z,101421.31
2023-02-12T00:16:35.753Z,101417.94
2023-02-12T00:19:04.834Z,101413.69
2023-02-12T00:21:35.611Z,101419.63
2023-02-12T00:24:05.100Z,101418.78
2023-02-12T00:26:33.851Z,101420.50
2023-02-12T00:29:02.686Z,101418.78
2023-02-12T00:31:33.539Z,101422.16
2023-02-12T00:34:02.641Z,101417.09
2023-02-12T00:36:34.213Z,101419.63
2023-02-12T00:39:03.083Z,101419.63
2023-02-12T00:41:33.172Z,101424.72
2023-02-12T00:44:01.830Z,101422.16
2023-02-12T00:46:30.571Z,101434.03
2023-02-12T00:48:59.312Z,101429.78
2023-02-12T00:51:28.032Z,101426.41
2023-02-12T00:53:58.083Z,101431.47
2023-02-12T00:56:26.842Z,101431.47
2023-02-12T00:58:55.424Z,101431.47
2023-02-12T01:01:24.191Z,101435.66
2023-02-12T01:03:52.953Z,101443.28
2023-02-12T01:06:21.633Z,101442.44
2023-02-12T01:08:52.672Z,101433.09
2023-02-12T01:11:22.968Z,101432.28
2023-02-12T01:13:51.711Z,101439.03
2023-02-12T01:16:24.423Z,101433.09
2023-02-12T01:18:56.107Z,101433.09
2023-02-12T01:21:27.665Z,101433.97
2023-02-12T01:23:57.111Z,101425.47
2023-02-12T01:26:29.418Z,101426.34
2023-02-12T01:29:02.139Z,101425.47
2023-02-12T01:31:33.851Z,101432.28
2023-02-12T01:34:03.731Z,101439.03
2023-02-12T01:36:35.576Z,101434.81
2023-02-12T01:39:06.925Z,101427.19
2023-02-12T01:41:44.590Z,101422.94
2023-02-12T01:44:18.489Z,101420.41
2023-02-12T01:46:50.119Z,101424.66
2023-02-12T01:49:24.776Z,101422.97
2023-02-12T01:52:00.921Z,101411.13
2023-02-12T01:54:31.288Z,101417.88
2023-02-12T01:57:03.390Z,101415.34
2023-02-12T01:59:32.832Z,101418.75
2023-02-12T02:02:01.983Z,101426.38
2023-02-12T02:04:41.727Z,101418.75
2023-02-12T02:07:13.180Z,101416.19
2023-02-12T02:09:42.798Z,101412.78
2023-02-12T02:12:30.067Z,101409.41
2023-02-12T02:15:01.983Z,101411.91
2023-02-12T02:17:53.011Z,101415.31
2023-02-12T02:21:05.053Z,101410.22
2023-02-12T02:23:54.982Z,101414.47
2023-02-12T02:26:56.638Z,101412.84
2023-02-12T02:29:54.949Z,101420.50
2023-02-12T02:32:28.696Z,101412.03
2023-02-12T02:35:04.850Z,101417.94
2023-02-12T02:37:38.428Z,101419.63
2023-02-12T02:40:14.605Z,101423.00
2023-02-12T02:42:49.128Z,101417.09
2023-02-12T02:45:23.893Z,101417.09
2023-02-12T02:47:59.772Z,101416.22
2023-02-12T02:50:30.923Z,101411.97
2023-02-12T02:53:06.300Z,101413.66
2023-02-12T02:55:42.245Z,101419.56
2023-02-12T02:58:15.361Z,101418.75
2023-02-12T03:00:49.614Z,101415.31
2023-02-12T03:03:25.278Z,101409.41
2023-02-12T03:06:00.454Z,101412.78
2023-02-12T03:08:35.947Z,101417.88
2023-02-12T03:11:12.914Z,101420.41
2023-02-12T03:13:47.103Z,101417.88
2023-02-12T03:16:22.585Z,101416.22
2023-02-12T03:18:58.256Z,101413.69
2023-02-12T03:21:35.172Z,101418.78
2023-02-12T03:24:12.710Z,101421.31
2023-02-12T03:26:48.815Z,101419.63
2023-02-12T03:29:17.501Z,101419.66
2023-02-12T03:31:58.989Z,101422.19
2023-02-12T03:34:43.240Z,101417.13
2023-02-12T03:37:19.782Z,101417.13
2023-02-12T03:39:56.712Z,101420.50
2023-02-12T03:42:35.576Z,101417.94
2023-02-12T03:45:10.728Z,101424.72
2023-02-12T03:47:48.757Z,101413.69
2023-02-12T03:50:24.273Z,101418.78
2023-02-12T03:52:53.037Z,101423.03
2023-02-12T03:55:21.797Z,101426.44
2023-02-12T03:57:56.018Z,101423.03
2023-02-12T04:00:25.895Z,101423.03
2023-02-12T04:02:55.732Z,101423.03
2023-02-12T04:05:28.724Z,101419.66
2023-02-12T04:07:59.997Z,101428.09
2023-02-12T04:10:36.087Z,101423.91
2023-02-12T04:13:18.468Z,101413.75
2023-02-12T04:16:03.686Z,101427.28
2023-02-12T04:18:41.797Z,101428.19
2023-02-12T04:21:20.270Z,101427.31
2023-02-12T04:23:58.932Z,101435.81
2023-02-12T04:26:38.578Z,101439.16
2023-02-12T04:29:17.945Z,101440.00
2023-02-12T04:31:51.276Z,101448.50
2023-02-12T04:34:27.807Z,101439.16
2023-02-12T04:37:03.501Z,101439.16
2023-02-12T04:39:37.318Z,101437.44
2023-02-12T04:42:06.563Z,101447.59
2023-02-12T04:44:39.672Z,101443.31
2023-02-12T04:47:08.343Z,101446.72
2023-02-12T04:49:36.959Z,101454.31
2023-02-12T04:52:07.600Z,101446.69
2023-02-12T04:54:36.542Z,101445.81
2023-02-12T04:57:05.684Z,101445.81
2023-02-12T04:59:34.310Z,101450.06
2023-02-12T05:02:03.539Z,101442.41
2023-02-12T05:04:32.242Z,101442.41
2023-02-12T05:07:00.889Z,101434.78
2023-02-12T05:09:30.929Z,101441.56
2023-02-12T05:11:59.584Z,101444.91
2023-02-12T05:14:28.238Z,101436.50
2023-02-12T05:16:56.998Z,101433.09
2023-02-12T05:19:25.618Z,101430.56
2023-02-12T05:21:56.695Z,101428.88
2023-02-12T05:24:25.897Z,101431.44
2023-02-12T05:26:56.064Z,101434.00
2023-02-12T05:29:24.729Z,101433.13
2023-02-12T05:31:53.512Z,101437.38
2023-02-12T05:34:22.288Z,101441.66
2023-02-12T05:36:50.902Z,101439.97
2023-02-12T05:39:19.615Z,101439.09
2023-02-12T05:41:48.226Z,101440.00
2023-02-12T05:44:18.345Z,101433.25
2023-02-12T05:46:47.012Z,101434.13
2023-02-12T05:49:15.730Z,101437.47
2023-02-12T05:51:44.419Z,101436.66
2023-02-12T05:54:13.096Z,101443.44
2023-02-12T05:56:45.805Z,101447.66
2023-02-12T05:59:19.097Z,101440.91
2023-02-12T06:01:50.443Z,101439.22
2023-02-12T06:04:23.712Z,101432.44
2023-02-12T06:06:53.047Z,101439.19
2023-02-12T06:09:21.678Z,101434.97
2023-02-12T06:11:50.500Z,101443.44
2023-02-12T06:14:22.000Z,101448.50
2023-02-12T06:16:52.538Z,101434.91
2023-02-12T06:19:22.161Z,101442.53
2023-02-12T06:21:50.859Z,101442.53
2023-02-12T06:24:20.088Z,101445.06
2023-02-12T06:26:51.894Z,101455.25
2023-02-12T06:29:22.719Z,101442.53
2023-02-12T06:31:51.637Z,101452.69
2023-02-12T06:34:20.420Z,101452.66
2023-02-12T06:36:49.661Z,101447.59
2023-02-12T06:39:19.536Z,101455.22
2023-02-12T06:41:48.206Z,101454.34
2023-02-12T06:44:16.830Z,101460.25
2023-02-12T06:46:46.885Z,101451.81
2023-02-12T06:49:16.682Z,101458.56
2023-02-12T06:51:45.390Z,101459.44
2023-02-12T06:54:15.923Z,101461.97
2023-02-12T06:56:45.067Z,101467.06
2023-02-12T06:59:16.408Z,101461.97
2023-02-12T07:01:46.533Z,101466.22
2023-02-12T07:04:15.520Z,101472.16
2023-02-12T07:06:44.284Z,101479.75
2023-02-12T07:09:13.255Z,101479.78
2023-02-12T07:11:41.924Z,101487.41
2023-02-12T07:14:15.917Z,101483.13
2023-02-12T07:16:46.253Z,101491.59
2023-02-12T07:19:17.004Z,101494.13
2023-02-12T07:21:45.694Z,101488.22
2023-02-12T07:24:15.395Z,101495.00
2023-02-12T07:26:44.161Z,101490.72
2023-02-12T07:29:12.861Z,101495.81
2023-02-12T07:31:43.064Z,101497.50
2023-02-12T07:34:13.607Z,101500.91
2023-02-12T07:36:42.377Z,101502.59
2023-02-12T07:39:13.221Z,101501.72
2023-02-12T07:41:41.880Z,101501.69
2023-02-12T07:44:13.439Z,101504.22
2023-02-12T07:46:47.717Z,101497.41
2023-02-12T07:49:21.515Z,101499.09
2023-02-12T07:51:50.861Z,101502.47
2023-02-12T07:54:19.781Z,101505.88
2023-02-12T07:56:48.421Z,101501.59
2023-02-12T07:59:19.382Z,101510.91
2023-02-12T08:01:50.495Z,101508.34
2023-02-12T08:04:23.103Z,101510.84
2023-02-12T08:06:55.106Z,101513.41
2023-02-12T08:09:27.139Z,101509.13
2023-02-12T08:11:56.043Z,101506.59
2023-02-12T08:14:24.877Z,101509.97
2023-02-12T08:16:54.111Z,101514.22
2023-02-12T08:19:26.586Z,101509.97
2023-02-12T08:21:57.660Z,101519.28
2023-02-12T08:24:27.067Z,101520.94
2023-02-12T08:26:55.889Z,101520.94
2023-02-12T08:29:27.091Z,101530.22
2023-02-12T08:31:58.887Z,101519.22
2023-02-12T08:34:31.540Z,101519.19
2023-02-12T08:37:00.738Z,101528.50
2023-02-12T08:39:30.888Z,101527.63
2023-02-12T08:42:01.870Z,101524.19
2023-02-12T08:44:30.713Z,101523.34
2023-02-12T08:46:59.918Z,101530.16
2023-02-12T08:49:31.413Z,101530.13
2023-02-12T08:52:01.835Z,101529.25
2023-02-12T08:54:35.508Z,101536.00
2023-02-12T08:57:04.793Z,101528.38
2023-02-12T08:59:33.726Z,101544.44
2023-02-12T09:02:04.150Z,101546.09
2023-02-12T09:04:36.042Z,101550.34
2023-02-12T09:07:04.757Z,101541.84
2023-02-12T09:09:34.413Z,101535.91
2023-02-12T09:12:06.895Z,101542.69
2023-02-12T09:14:35.530Z,101547.72
2023-02-12T09:17:04.208Z,101547.69
2023-02-12T09:19:34.231Z,101544.31
2023-02-12T09:22:02.888Z,101543.44
2023-02-12T09:24:32.464Z,101548.50
2023-02-12T09:27:01.146Z,101536.56
2023-02-12T09:29:29.791Z,101534.03
2023-02-12T09:31:59.310Z,101537.41
2023-02-12T09:34:28.159Z,101534.00
2023-02-12T09:36:58.259Z,101538.19
2023-02-12T09:39:30.444Z,101533.97
2023-02-12T09:42:39.393Z,101534.75
2023-02-12T09:45:18.296Z,101539.84
2023-02-12T09:47:53.326Z,101542.38
2023-02-12T09:50:34.777Z,101538.13
2023-02-12T09:53:06.187Z,101553.34
2023-02-12T09:55:36.488Z,101550.78
2023-02-12T09:58:15.456Z,101554.13
2023-02-12T10:00:44.745Z,101554.13
2023-02-12T10:03:17.617Z,101549.81
2023-02-12T10:05:52.222Z,101554.88
2023-02-12T10:08:45.251Z,101549.75
2023-02-12T10:11:40.004Z,101542.97
2023-02-12T10:14:41.980Z,101552.28
2023-02-12T10:17:23.710Z,101542.97
2023-02-12T10:20:16.198Z,101550.53
2023-02-12T10:22:57.374Z,101536.09
2023-02-12T10:25:33.980Z,101529.28
2023-02-12T10:28:10.767Z,101535.19
2023-02-12T10:30:45.619Z,101531.78
2023-02-12T10:33:18.902Z,101532.56
2023-02-12T10:35:54.931Z,101528.31
2023-02-12T10:38:29.511Z,101535.91
2023-02-12T10:41:02.065Z,101523.16
2023-02-12T10:43:31.732Z,101525.66
2023-02-12T10:46:00.386Z,101512.88
2023-02-12T10:48:36.528Z,101514.56
2023-02-12T10:51:26.845Z,101510.28
2023-02-12T10:53:55.443Z,101509.41
2023-02-12T10:56:27.174Z,101514.44
2023-02-12T10:58:59.785Z,101514.38
2023-02-12T11:01:31.962Z,101508.44
2023-02-12T11:04:21.127Z,101505.81
2023-02-12T11:07:00.147Z,101502.41
2023-02-12T11:09:40.738Z,101500.69
2023-02-12T11:12:30.044Z,101501.50
2023-02-12T11:15:01.525Z,101499.78
2023-02-12T11:17:37.801Z,101498.03
2023-02-12T11:20:24.303Z,101496.31
2023-02-12T11:22:55.675Z,101495.41
2023-02-12T11:25:26.859Z,101491.13
2023-02-12T11:28:17.110Z,101485.13
2023-02-12T11:30:58.649Z,101483.41
2023-02-12T11:33:31.914Z,101468.09
2023-02-12T11:36:07.169Z,101476.56
2023-02-12T11:38:39.974Z,101479.91
2023-02-12T11:41:24.093Z,101477.34
2023-02-12T11:43:55.226Z,101478.16
2023-02-12T11:46:27.145Z,101469.66
2023-02-12T11:48:58.302Z,101476.38
2023-02-12T11:51:30.381Z,101464.50
2023-02-12T11:54:02.505Z,101474.66
2023-02-12T11:56:44.896Z,101464.41
2023-02-12T11:59:30.611Z,101460.19
2023-02-12T12:02:05.506Z,101456.75
2023-02-12T12:04:36.959Z,101460.94
2023-02-12T12:07:14.338Z,101457.50
2023-02-12T12:09:47.393Z,101458.34
2023-02-12T12:12:23.640Z,101455.78
2023-02-12T12:15:15.237Z,101452.28
2023-02-12T12:18:08.034Z,101452.28
2023-02-12T12:20:45.126Z,101441.19
2023-02-12T12:23:20.448Z,101439.47
2023-02-12T12:25:54.404Z,101443.69
2023-02-12T12:28:35.394Z,101432.63
2023-02-12T12:31:11.238Z,101438.53
2023-02-12T12:33:45.019Z,101431.66
2023-02-12T12:36:51.858Z,101428.25
2023-02-12T12:39:36.499Z,101430.75
2023-02-12T12:42:56.755Z,101431.63
2023-02-12T12:46:18.343Z,101427.34
2023-02-12T12:49:14.730Z,101414.56
2023-02-12T12:52:13.861Z,101408.59
2023-02-12T12:55:18.235Z,101402.63
2023-02-12T12:57:58.601Z,101394.94
2023-02-12T13:00:43.144Z,101390.69
2023-02-12T13:03:56.085Z,101388.13
2023-02-12T13:06:54.487Z,101393.19
2023-02-12T13:09:55.822Z,101390.59
2023-02-12T13:12:50.750Z,101388.88
2023-02-12T13:15:32.733Z,101380.34
2023-02-12T13:18:15.500Z,101380.34
2023-02-12T13:20:52.998Z,101387.91
2023-02-12T13:23:34.921Z,101376.84
2023-02-12T13:26:12.539Z,101377.66
2023-02-12T13:28:45.439Z,101377.66
2023-02-12T13:31:32.532Z,101380.19
2023-02-12T13:34:05.357Z,101379.31
2023-02-12T13:36:38.038Z,101377.59
2023-02-12T13:39:19.987Z,101370.75
2023-02-12T13:42:03.574Z,101368.19
2023-02-12T13:44:39.296Z,101367.34
2023-02-12T13:47:19.190Z,101363.91
2023-02-12T13:49:52.931Z,101365.56
2023-02-12T13:52:36.439Z,101363.00
2023-02-12T13:55:23.812Z,101368.97
2023-02-12T13:58:56.296Z,101357.91
2023-02-12T14:01:47.137Z,101356.28
2023-02-12T14:04:30.334Z,101361.31
2023-02-12T14:07:02.597Z,101360.41
2023-02-12T14:09:38.821Z,101345.13
2023-02-12T14:12:12.478Z,101350.22
2023-02-12T14:14:45.752Z,101345.94
2023-02-12T14:17:53.749Z,101343.34
2023-02-12T14:20:28.996Z,101343.34
2023-02-12T14:23:19.383Z,101345.03
2023-02-12T14:25:57.999Z,101339.94
2023-02-12T14:28:35.456Z,101339.06
2023-02-12T14:31:43.491Z,101337.38
2023-02-12T14:34:51.993Z,101334.84
2023-02-12T14:37:38.231Z,101322.91
2023-02-12T14:40:44.392Z,101317.84
2023-02-12T14:43:32.678Z,101325.47
2023-02-12T14:46:53.464Z,101322.94
2023-02-12T14:49:27.164Z,101314.47
2023-02-12T14:52:01.851Z,101313.56
2023-02-12T14:54:35.983Z,101305.91
2023-02-12T14:57:10.183Z,101309.25
2023-02-12T14:59:42.914Z,101312.63
2023-02-12T15:02:23.200Z,101301.56
2023-02-12T15:04:54.791Z,101304.97
2023-02-12T15:07:30.019Z,101303.22
2023-02-12T15:10:07.522Z,101303.22
2023-02-12T15:12:41.314Z,101303.22
2023-02-12T15:15:22.291Z,101296.41
2023-02-12T15:17:59.407Z,101299.75
2023-02-12T15:20:36.669Z,101293.03
2023-02-12T15:23:33.870Z,101288.75
2023-02-12T15:26:03.203Z,101297.22
2023-02-12T15:28:35.548Z,101300.59
2023-02-12T15:31:10.490Z,101300.59
2023-02-12T15:33:46.913Z,101303.13
2023-02-12T15:36:21.624Z,101309.91
2023-02-12T15:38:53.987Z,101304.81
2023-02-12T15:41:29.608Z,101303.13
2023-02-12T15:43:58.878Z,101303.13
2023-02-12T15:46:27.766Z,101298.03
2023-02-12T15:48:58.109Z,101294.63
2023-02-12T15:51:31.658Z,101294.63
2023-02-12T15:54:02.102Z,101292.94
2023-02-12T15:56:32.064Z,101292.13
2023-02-12T15:59:03.184Z,101295.53
2023-02-12T16:01:36.096Z,101295.53
2023-02-12T16:04:08.742Z,101293.84
2023-02-12T16:06:38.638Z,101298.97
2023-02-12T16:09:11.007Z,101303.22
2023-02-12T16:11:40.535Z,101301.56
2023-02-12T16:14:22.178Z,101295.69
2023-02-12T16:16:54.857Z,101298.22
2023-02-12T16:19:27.894Z,101303.31
2023-02-12T16:22:08.132Z,101305.91
2023-02-12T16:24:50.442Z,101303.38
2023-02-12T16:27:22.890Z,101304.28
2023-02-12T16:29:54.363Z,101311.13
2023-02-12T16:32:34.741Z,101311.13
2023-02-12T16:35:20.572Z,101318.78
2023-02-12T16:37:51.348Z,101314.53
2023-02-12T16:40:28.590Z,101316.25
2023-02-12T16:43:26.324Z,101325.63
2023-02-12T16:46:06.687Z,101317.19
2023-02-12T16:48:40.814Z,101322.28
2023-02-12T16:51:23.816Z,101322.28
2023-02-12T16:53:54.062Z,101324.06
2023-02-12T16:56:26.328Z,101330.84
2023-02-12T16:58:58.825Z,101332.56
2023-02-12T17:01:30.493Z,101339.41
2023-02-12T17:04:01.154Z,101334.34
2023-02-12T17:06:33.656Z,101339.50
2023-02-12T17:09:02.340Z,101331.06
2023-02-12T17:11:30.987Z,101339.56
2023-02-12T17:13:59.598Z,101340.44
2023-02-12T17:16:31.072Z,101334.56
2023-02-12T17:19:00.318Z,101339.66
2023-02-12T17:21:40.542Z,101331.31
2023-02-12T17:24:18.022Z,101344.91
2023-02-12T17:26:46.776Z,101349.19
2023-02-12T17:29:15.405Z,101344.09
2023-02-12T17:31:44.168Z,101348.41
2023-02-12T17:34:13.367Z,101355.25
2023-02-12T17:36:43.795Z,101354.47
2023-02-12T17:39:15.454Z,101354.50
2023-02-12T17:41:45.244Z,101358.78
2023-02-12T17:44:15.159Z,101354.59
2023-02-12T17:46:45.370Z,101363.13
2023-02-12T17:49:14.290Z,101360.66
2023-02-12T17:51:44.269Z,101363.22
2023-02-12T17:54:13.949Z,101357.34
2023-02-12T17:56:42.611Z,101368.44
2023-02-12T17:59:11.862Z,101369.31
2023-02-12T18:01:41.228Z,101369.34
2023-02-12T18:04:09.986Z,101370.25
2023-02-12T18:06:39.452Z,101370.25
2023-02-12T18:09:09.718Z,101368.63
2023-02-12T18:11:40.417Z,101371.16
2023-02-12T18:14:09.228Z,101366.13
2023-02-12T18:16:37.903Z,101376.31
2023-02-12T18:19:06.678Z,101376.31
2023-02-12T18:21:35.920Z,101380.56
2023-02-12T18:24:05.288Z,101382.25
2023-02-12T18:26:35.541Z,101381.44
2023-02-12T18:29:04.268Z,101388.22
2023-02-12T18:31:33.675Z,101384.03
2023-02-12T18:34:02.544Z,101386.56
2023-02-12T18:36:31.267Z,101386.56
2023-02-12T18:39:01.001Z,101383.22
2023-02-12T18:41:32.101Z,101390.00
2023-02-12T18:44:02.184Z,101391.72
2023-02-12T18:46:32.653Z,101399.34
2023-02-12T18:49:02.382Z,101394.31
2023-02-12T18:51:36.518Z,101392.66
2023-02-12T18:54:07.951Z,101385.00
2023-02-12T18:56:41.025Z,101387.56
2023-02-12T18:59:15.460Z,101392.66
2023-02-12T19:01:46.401Z,101386.78
2023-02-12T19:04:17.061Z,101396.09
2023-02-12T19:06:48.564Z,101393.56
2023-02-12T19:09:20.280Z,101391.06
2023-02-12T19:11:51.316Z,101390.22
2023-02-12T19:14:23.270Z,101386.88
2023-02-12T19:16:52.847Z,101387.72
2023-02-12T19:19:22.574Z,101380.94
2023-02-12T19:21:51.530Z,101391.13
2023-02-12T19:24:20.619Z,101392.00
2023-02-12T19:26:53.228Z,101393.69
2023-02-12T19:29:23.346Z,101390.34
2023-02-12T19:31:52.150Z,101386.09
2023-02-12T19:34:24.851Z,101384.41
2023-02-12T19:36:53.516Z,101394.59
2023-02-12T19:39:24.623Z,101388.66
2023-02-12T19:41:56.190Z,101385.22
2023-02-12T19:44:27.304Z,101391.25
2023-02-12T19:46:56.926Z,101391.25
2023-02-12T19:49:28.002Z,101390.38
2023-02-12T19:51:56.944Z,101387.81
2023-02-12T19:54:26.625Z,101390.38
2023-02-12T19:56:56.358Z,101399.69
2023-02-12T19:59:27.472Z,101392.91
2023-02-12T20:01:56.599Z,101389.50
2023-02-12T20:04:25.898Z,101391.25
2023-02-12T20:06:54.818Z,101392.94
2023-02-12T20:09:24.357Z,101398.91
2023-02-12T20:11:53.428Z,101390.44
2023-02-12T20:14:22.855Z,101396.41
2023-02-12T20:16:56.371Z,101395.63
2023-02-12T20:19:28.498Z,101395.66
2023-02-12T20:21:58.276Z,101388.00
2023-02-12T20:24:29.619Z,101397.34
2023-02-12T20:27:00.727Z,101396.50
2023-02-12T20:29:29.866Z,101400.75
2023-02-12T20:32:00.066Z,101400.78
2023-02-12T20:34:29.603Z,101401.69
2023-02-12T20:36:58.996Z,101405.06
2023-02-12T20:39:27.694Z,101396.59
2023-02-12T20:41:56.463Z,101400.06
2023-02-12T20:44:25.240Z,101394.13
2023-02-12T20:46:57.287Z,101400.91
2023-02-12T20:49:28.231Z,101395.81
2023-02-12T20:51:56.982Z,101399.22
2023-02-12T20:54:25.924Z,101401.75
2023-02-12T20:56:54.569Z,101399.22
2023-02-12T20:59:23.332Z,101397.53
2023-02-12T21:01:52.028Z,101398.44
2023-02-12T21:04:21.219Z,101397.56
2023-02-12T21:06:51.280Z,101399.34
2023-02-12T21:09:20.002Z,101405.31
2023-02-12T21:11:49.095Z,101406.16
2023-02-12T21:14:23.448Z,101409.56
2023-02-12T21:16:53.483Z,101408.78
2023-02-12T21:19:22.573Z,101407.09
2023-02-12T21:21:52.710Z,101414.72
2023-02-12T21:24:24.524Z,101410.50
2023-02-12T21:26:54.817Z,101403.72
2023-02-12T21:29:26.568Z,101408.84
2023-02-12T21:31:55.870Z,101407.97
2023-02-12T21:34:25.151Z,101422.44
2023-02-12T21:36:57.623Z,101412.28
2023-02-12T21:39:28.601Z,101410.59
2023-02-12T21:42:00.084Z,101413.16
2023-02-12T21:44:29.194Z,101408.09
2023-02-12T21:46:58.891Z,101415.75
2023-02-12T21:49:28.837Z,101415.81
2023-02-12T21:52:02.131Z,101410.72
2023-02-12T21:54:32.033Z,101415.00
2023-02-12T21:57:01.612Z,101415.00
2023-02-12T21:59:32.349Z,101422.66
2023-02-12T22:02:01.906Z,101417.63
2023-02-12T22:04:30.688Z,101421.81
2023-02-12T22:07:03.279Z,101420.19
2023-02-12T22:09:32.284Z,101422.72
2023-02-12T22:12:00.926Z,101430.34
2023-02-12T22:14:29.598Z,101428.66
2023-02-12T22:16:58.817Z,101421.06
2023-02-12T22:19:27.479Z,101432.09
2023-02-12T22:21:56.141Z,101423.66
2023-02-12T22:24:26.148Z,101427.91
2023-02-12T22:26:56.181Z,101417.78
2023-02-12T22:29:24.873Z,101427.94
2023-02-12T22:31:53.642Z,101425.44
2023-02-12T22:34:22.494Z,101428.84
2023-02-12T22:36:51.149Z,101411.91
2023-02-12T22:39:21.413Z,101411.91
2023-02-12T22:41:51.451Z,101422.06
2023-02-12T22:44:21.411Z,101417.03
2023-02-12T22:46:50.450Z,101422.97
2023-02-12T22:49:19.349Z,101417.06
2023-02-12T22:51:48.071Z,101416.25
2023-02-12T22:54:18.859Z,101429.00
2023-02-12T22:56:53.034Z,101424.75
2023-02-12T22:59:21.806Z,101429.88
2023-02-12T23:01:50.598Z,101425.63
2023-02-12T23:04:20.369Z,101425.66
2023-02-12T23:06:49.408Z,101441.75
2023-02-12T23:09:19.903Z,101435.84
2023-02-12T23:11:49.115Z,101429.91
2023-02-12T23:14:21.366Z,101438.41
2023-02-12T23:16:50.064Z,101432.47
2023-02-12T23:19:18.753Z,101434.19
2023-02-12T23:21:47.459Z,101444.34
2023-02-12T23:24:16.375Z,101429.09
2023-02-12T23:26:45.411Z,101440.97
2023-02-12T23:29:14.171Z,101440.94
2023-02-12T23:31:44.321Z,101433.34
2023-02-12T23:34:13.113Z,101439.28
2023-02-12T23:36:41.817Z,101436.72
2023-02-12T23:39:13.850Z,101439.28
2023-02-12T23:41:42.538Z,101429.09
2023-02-12T23:44:11.684Z,101427.41
2023-02-12T23:46:40.381Z,101413.03
2023-02-12T23:49:10.726Z,101422.31
2023-02-12T23:51:39.394Z,101421.53
2023-02-12T23:54:08.112Z,101414.75
2023-02-12T23:56:36.686Z,101411.41
2023-02-12T23:59:05.411Z,101405.53
